createdAt,value
2019-03-21T00:00:19.847Z,102390.44
2019-03-21T00:02:45.629Z,102384.19
2019-03-21T00:05:11.721Z,102388.28
2019-03-21T00:07:37.490Z,102385.09
2019-03-21T00:10:15.773Z,102387.55
2019-03-21T00:12:41.653Z,102390.02
2019-03-21T00:15:14.004Z,102384.68
2019-03-21T00:17:42.796Z,102386.11
2019-03-21T00:20:14.572Z,102388.54
2019-03-21T00:22:40.434Z,102388.10
2019-03-21T00:25:09.940Z,102384.91
2019-03-21T00:27:35.965Z,102386.23
2019-03-21T00:30:05.795Z,102385.30
2019-03-21T00:32:31.984Z,102393.63
2019-03-21T00:34:58.325Z,102377.87
2019-03-21T00:37:24.258Z,102382.19
2019-03-21T00:39:50.211Z,102378.23
2019-03-21T00:42:16.385Z,102376.33
2019-03-21T00:44:42.411Z,102384.00
2019-03-21T00:47:08.453Z,102375.42
2019-03-21T00:49:34.279Z,102374.06
2019-03-21T00:52:00.302Z,102379.61
2019-03-21T00:54:26.121Z,102379.09
2019-03-21T00:56:52.019Z,102379.73
2019-03-21T00:59:18.733Z,102376.63
2019-03-21T01:01:44.811Z,102383.10
2019-03-21T01:04:10.629Z,102383.63
2019-03-21T01:06:36.645Z,102385.02
2019-03-21T01:09:06.511Z,102378.08
2019-03-21T01:11:32.303Z,102380.85
2019-03-21T01:13:58.406Z,102380.65
2019-03-21T01:16:24.229Z,102372.30
2019-03-21T01:18:50.355Z,102375.78
2019-03-21T01:21:16.405Z,102374.22
2019-03-21T01:23:42.681Z,102371.24
2019-03-21T01:26:13.242Z,102366.65
2019-03-21T01:28:39.368Z,102370.03
2019-03-21T01:31:05.379Z,102368.59
2019-03-21T01:33:31.439Z,102366.13
2019-03-21T01:35:57.277Z,102368.94
2019-03-21T01:38:23.349Z,102364.13
2019-03-21T01:40:52.419Z,102371.32
2019-03-21T01:43:19.209Z,102366.52
2019-03-21T01:45:45.186Z,102366.89
2019-03-21T01:48:11.338Z,102368.30
2019-03-21T01:50:38.766Z,102370.70
2019-03-21T01:53:04.689Z,102372.30
2019-03-21T01:55:30.784Z,102371.44
2019-03-21T01:57:56.571Z,102369.16
2019-03-21T02:00:25.999Z,102371.11
2019-03-21T02:02:54.472Z,102363.34
2019-03-21T02:05:20.310Z,102364.47
2019-03-21T02:07:46.289Z,102364.59
2019-03-21T02:10:15.374Z,102364.66
2019-03-21T02:12:41.194Z,102365.45
2019-03-21T02:15:10.915Z,102362.36
2019-03-21T02:17:36.910Z,102368.29
2019-03-21T02:20:06.641Z,102366.50
2019-03-21T02:22:32.817Z,102363.95
2019-03-21T02:24:58.832Z,102362.81
2019-03-21T02:27:24.944Z,102361.56
2019-03-21T02:29:50.715Z,102357.30
2019-03-21T02:32:16.751Z,102359.92
2019-03-21T02:34:42.642Z,102364.06
2019-03-21T02:37:08.683Z,102360.58
2019-03-21T02:39:34.914Z,102356.90
2019-03-21T02:42:00.949Z,102356.64
2019-03-21T02:44:26.986Z,102354.47
2019-03-21T02:46:52.871Z,102359.61
2019-03-21T02:49:18.925Z,102366.52
2019-03-21T02:51:45.154Z,102363.36
2019-03-21T02:54:11.119Z,102357.42
2019-03-21T02:56:37.073Z,102359.54
2019-03-21T02:59:03.439Z,102363.88
2019-03-21T03:01:29.837Z,102361.56
2019-03-21T03:03:55.918Z,102367.28
2019-03-21T03:06:22.154Z,102366.64
2019-03-21T03:08:48.121Z,102365.84
2019-03-21T03:11:17.963Z,102361.50
2019-03-21T03:13:46.937Z,102359.67
2019-03-21T03:16:12.756Z,102365.59
2019-03-21T03:18:39.544Z,102361.72
2019-03-21T03:21:05.337Z,102370.19
2019-03-21T03:23:31.323Z,102366.77
2019-03-21T03:25:57.668Z,102368.41
2019-03-21T03:28:30.295Z,102375.72
2019-03-21T03:30:57.301Z,102363.48
2019-03-21T03:33:23.612Z,102371.86
2019-03-21T03:35:49.808Z,102364.16
2019-03-21T03:38:15.813Z,102372.30
2019-03-21T03:40:47.497Z,102375.83
2019-03-21T03:43:13.765Z,102378.67
2019-03-21T03:45:43.551Z,102377.94
2019-03-21T03:48:09.642Z,102387.02
2019-03-21T03:50:35.604Z,102381.69
2019-03-21T03:53:02.325Z,102385.35
2019-03-21T03:55:28.575Z,102383.56
2019-03-21T03:58:00.819Z,102379.34
2019-03-21T04:00:26.966Z,102375.46
2019-03-21T04:02:54.707Z,102375.37
2019-03-21T04:05:21.059Z,102373.00
2019-03-21T04:07:48.065Z,102367.12
2019-03-21T04:10:23.013Z,102374.72
2019-03-21T04:12:49.259Z,102370.16
2019-03-21T04:15:15.437Z,102375.33
2019-03-21T04:17:41.436Z,102376.55
2019-03-21T04:20:11.198Z,102372.01
2019-03-21T04:22:37.183Z,102379.03
2019-03-21T04:25:07.033Z,102372.03
2019-03-21T04:27:34.063Z,102374.77
2019-03-21T04:30:00.422Z,102374.34
2019-03-21T04:32:26.695Z,102377.53
2019-03-21T04:34:52.568Z,102381.29
2019-03-21T04:37:18.675Z,102383.84
2019-03-21T04:39:44.745Z,102381.20
2019-03-21T04:42:10.618Z,102370.19
2019-03-21T04:44:36.590Z,102375.56
2019-03-21T04:47:02.918Z,102379.86
2019-03-21T04:49:28.836Z,102380.91
2019-03-21T04:51:55.124Z,102374.56
2019-03-21T04:54:21.123Z,102376.08
2019-03-21T04:56:47.062Z,102375.52
2019-03-21T04:59:13.101Z,102384.00
2019-03-21T05:01:39.133Z,102385.77
2019-03-21T05:04:05.459Z,102382.89
2019-03-21T05:06:32.915Z,102374.92
2019-03-21T05:08:59.134Z,102381.12
2019-03-21T05:11:25.000Z,102376.33
2019-03-21T05:13:50.791Z,102384.91
2019-03-21T05:16:16.792Z,102379.59
2019-03-21T05:18:49.578Z,102377.34
2019-03-21T05:21:20.798Z,102379.34
2019-03-21T05:23:46.795Z,102377.48
2019-03-21T05:26:13.189Z,102383.23
2019-03-21T05:28:39.190Z,102387.34
2019-03-21T05:31:08.913Z,102387.86
2019-03-21T05:33:35.044Z,102388.02
2019-03-21T05:36:01.068Z,102387.17
2019-03-21T05:38:29.979Z,102390.56
2019-03-21T05:40:56.076Z,102387.74
2019-03-21T05:43:25.782Z,102398.39
2019-03-21T05:45:51.814Z,102394.13
2019-03-21T05:48:18.021Z,102395.62
2019-03-21T05:50:47.204Z,102397.44
2019-03-21T05:53:13.449Z,102398.50
2019-03-21T05:55:39.814Z,102399.73
2019-03-21T05:58:05.890Z,102401.56
2019-03-21T06:00:36.910Z,102403.80
2019-03-21T06:03:05.024Z,102404.72
2019-03-21T06:05:30.887Z,102401.48
2019-03-21T06:08:16.007Z,102399.37
2019-03-21T06:10:42.352Z,102403.45
2019-03-21T06:13:08.283Z,102403.72
2019-03-21T06:15:39.389Z,102404.42
2019-03-21T06:18:12.181Z,102408.58
2019-03-21T06:20:56.519Z,102408.05
2019-03-21T06:23:26.287Z,102408.95
2019-03-21T06:26:04.909Z,102415.47
2019-03-21T06:28:30.923Z,102417.77
2019-03-21T06:30:57.007Z,102415.30
2019-03-21T06:33:23.160Z,102415.69
2019-03-21T06:35:49.238Z,102422.23
2019-03-21T06:38:15.410Z,102418.30
2019-03-21T06:40:41.528Z,102416.84
2019-03-21T06:43:07.352Z,102415.99
2019-03-21T06:45:33.154Z,102418.17
2019-03-21T06:47:58.991Z,102416.22
2019-03-21T06:50:25.023Z,102420.78
2019-03-21T06:52:51.097Z,102415.41
2019-03-21T06:55:17.249Z,102421.73
2019-03-21T06:57:43.245Z,102420.77
2019-03-21T07:00:10.335Z,102423.52
2019-03-21T07:02:36.269Z,102422.87
2019-03-21T07:05:05.015Z,102428.21
2019-03-21T07:07:30.861Z,102426.00
2019-03-21T07:09:56.806Z,102431.90
2019-03-21T07:12:23.129Z,102425.51
2019-03-21T07:14:49.430Z,102431.57
2019-03-21T07:17:15.457Z,102425.43
2019-03-21T07:19:41.519Z,102431.32
2019-03-21T07:22:07.594Z,102426.53
2019-03-21T07:24:33.461Z,102425.96
2019-03-21T07:26:59.568Z,102422.16
2019-03-21T07:29:25.676Z,102423.80
2019-03-21T07:31:51.481Z,102432.11
2019-03-21T07:34:17.324Z,102422.48
2019-03-21T07:36:43.355Z,102426.91
2019-03-21T07:39:09.421Z,102422.30
2019-03-21T07:41:35.656Z,102422.02
2019-03-21T07:44:01.643Z,102432.33
2019-03-21T07:46:27.570Z,102427.75
2019-03-21T07:48:53.797Z,102426.14
2019-03-21T07:51:20.101Z,102421.21
2019-03-21T07:53:46.057Z,102420.03
2019-03-21T07:56:12.325Z,102419.34
2019-03-21T07:58:38.293Z,102423.61
2019-03-21T08:01:04.836Z,102423.37
2019-03-21T08:03:30.819Z,102425.38
2019-03-21T08:05:56.604Z,102412.65
2019-03-21T08:08:22.716Z,102418.72
2019-03-21T08:10:48.721Z,102418.64
2019-03-21T08:13:14.920Z,102422.87
2019-03-21T08:15:41.019Z,102415.88
2019-03-21T08:18:07.309Z,102416.93
2019-03-21T08:20:33.353Z,102413.13
2019-03-21T08:22:59.407Z,102410.45
2019-03-21T08:25:25.509Z,102408.30
2019-03-21T08:27:51.892Z,102404.41
2019-03-21T08:30:27.333Z,102398.88
2019-03-21T08:32:53.357Z,102397.98
2019-03-21T08:35:19.427Z,102398.81
2019-03-21T08:37:45.417Z,102401.86
2019-03-21T08:40:13.170Z,102398.36
2019-03-21T08:42:39.579Z,102398.67
2019-03-21T08:45:06.084Z,102397.84
2019-03-21T08:47:32.425Z,102391.12
2019-03-21T08:49:58.426Z,102390.03
2019-03-21T08:52:24.387Z,102390.48
2019-03-21T08:54:50.199Z,102388.33
2019-03-21T08:57:15.982Z,102386.52
2019-03-21T08:59:42.155Z,102392.09
2019-03-21T09:02:08.129Z,102378.89
2019-03-21T09:04:34.075Z,102376.94
2019-03-21T09:07:00.054Z,102374.66
2019-03-21T09:09:26.324Z,102355.20
2019-03-21T09:11:52.353Z,102342.63
2019-03-21T09:14:18.425Z,102344.85
2019-03-21T09:16:44.587Z,102338.69
2019-03-21T09:19:10.612Z,102339.12
2019-03-21T09:21:36.866Z,102334.14
2019-03-21T09:24:03.297Z,102335.01
2019-03-21T09:26:29.205Z,102334.09
2019-03-21T09:28:55.156Z,102342.04
2019-03-21T09:31:21.480Z,102342.04
2019-03-21T09:33:47.829Z,102338.34
2019-03-21T09:36:13.890Z,102338.13
2019-03-21T09:38:39.754Z,102337.99
2019-03-21T09:41:05.891Z,102331.02
2019-03-21T09:43:31.933Z,102327.70
2019-03-21T09:45:57.845Z,102330.78
2019-03-21T09:48:23.903Z,102337.93
2019-03-21T09:50:49.957Z,102329.45
2019-03-21T09:53:15.839Z,102336.50
2019-03-21T09:55:41.702Z,102335.59
2019-03-21T09:58:07.737Z,102348.41
2019-03-21T10:00:37.155Z,102334.42
2019-03-21T10:03:04.489Z,102331.28
2019-03-21T10:05:30.600Z,102292.76
2019-03-21T10:07:59.426Z,102292.76
2019-03-21T10:10:29.973Z,102313.69
2019-03-21T10:12:55.938Z,102322.64
2019-03-21T10:15:21.761Z,102312.91
2019-03-21T10:17:47.811Z,102313.19
2019-03-21T10:20:13.949Z,102321.22
2019-03-21T10:22:40.171Z,102318.68
2019-03-21T10:25:06.191Z,102311.97
2019-03-21T10:27:32.406Z,102301.15
2019-03-21T10:29:58.399Z,102285.72
2019-03-21T10:32:24.544Z,102282.29
2019-03-21T10:34:50.662Z,102300.80
2019-03-21T10:37:16.575Z,102289.73
2019-03-21T10:39:42.615Z,102295.47
2019-03-21T10:42:09.130Z,102291.91
2019-03-21T10:44:35.169Z,102282.81
2019-03-21T10:47:00.959Z,102274.78
2019-03-21T10:49:26.894Z,102290.78
2019-03-21T10:51:55.240Z,102287.74
2019-03-21T10:54:20.799Z,102275.17
2019-03-21T10:56:46.839Z,102277.59
2019-03-21T10:59:12.680Z,102277.98
2019-03-21T11:01:38.491Z,102261.87
2019-03-21T11:04:04.568Z,102267.98
2019-03-21T11:06:30.570Z,102262.92
2019-03-21T11:08:56.496Z,102260.45
2019-03-21T11:11:22.299Z,102273.24
2019-03-21T11:13:48.476Z,102264.30
2019-03-21T11:16:14.638Z,102266.20
2019-03-21T11:18:40.897Z,102275.14
2019-03-21T11:21:06.859Z,102258.97
2019-03-21T11:23:32.880Z,102241.30
2019-03-21T11:25:58.893Z,102244.57
2019-03-21T11:28:24.662Z,102245.30
2019-03-21T11:30:50.743Z,102241.06
2019-03-21T11:33:16.853Z,102228.97
2019-03-21T11:35:42.984Z,102223.72
2019-03-21T11:38:09.045Z,102224.36
2019-03-21T11:40:35.338Z,102224.70
2019-03-21T11:43:02.854Z,102211.30
2019-03-21T11:45:29.203Z,102231.41
2019-03-21T11:47:55.496Z,102220.30
2019-03-21T11:50:21.705Z,102183.75
2019-03-21T11:52:47.829Z,102223.04
2019-03-21T11:55:14.237Z,102214.20
2019-03-21T11:57:40.543Z,102222.94
2019-03-21T12:00:08.913Z,102223.39
2019-03-21T12:02:35.240Z,102220.81
2019-03-21T12:05:01.641Z,102218.30
2019-03-21T12:07:27.557Z,102212.81
2019-03-21T12:09:53.684Z,102204.02
2019-03-21T12:12:19.771Z,102202.84
2019-03-21T12:14:46.193Z,102210.63
2019-03-21T12:17:12.973Z,102194.09
2019-03-21T12:19:39.128Z,102197.63
2019-03-21T12:22:05.233Z,102181.91
2019-03-21T12:24:31.424Z,102179.31
2019-03-21T12:26:57.488Z,102179.66
2019-03-21T12:29:23.490Z,102160.95
2019-03-21T12:31:49.367Z,102163.95
2019-03-21T12:34:15.557Z,102159.46
2019-03-21T12:36:41.636Z,102166.52
2019-03-21T12:39:07.972Z,102169.86
2019-03-21T12:41:34.315Z,102165.91
2019-03-21T12:44:00.516Z,102151.69
2019-03-21T12:46:26.547Z,102157.09
2019-03-21T12:48:52.635Z,102135.98
2019-03-21T12:51:18.839Z,102149.58
2019-03-21T12:53:45.109Z,102140.94
2019-03-21T12:56:11.543Z,102140.15
2019-03-21T12:58:37.696Z,102139.27
2019-03-21T13:01:04.042Z,102130.11
2019-03-21T13:03:30.455Z,102117.63
2019-03-21T13:05:56.622Z,102114.86
2019-03-21T13:08:33.302Z,102109.09
2019-03-21T13:10:50.488Z,102110.20
2019-03-21T13:13:16.538Z,102113.41
2019-03-21T13:15:42.490Z,102126.48
2019-03-21T13:18:08.616Z,102126.48
2019-03-21T13:20:34.810Z,102127.92
2019-03-21T13:23:00.884Z,102122.05
2019-03-21T13:25:27.240Z,102116.27
2019-03-21T13:27:53.455Z,102108.00
2019-03-21T13:30:19.928Z,102112.61
2019-03-21T13:32:47.078Z,102108.30
2019-03-21T13:35:13.446Z,102105.70
2019-03-21T13:37:39.511Z,102100.73
2019-03-21T13:40:05.851Z,102098.20
2019-03-21T13:42:31.947Z,102094.95
2019-03-21T13:44:57.949Z,102087.20
2019-03-21T13:47:23.998Z,102078.94
2019-03-21T13:49:50.328Z,102083.70
2019-03-21T13:52:16.245Z,102082.40
2019-03-21T13:54:42.398Z,102076.10
2019-03-21T13:57:08.504Z,102063.87
2019-03-21T13:59:35.191Z,102071.76
2019-03-21T14:02:01.274Z,102067.46
2019-03-21T14:04:27.700Z,102066.25
2019-03-21T14:06:53.856Z,102062.06
2019-03-21T14:09:20.455Z,102061.46
2019-03-21T14:11:46.668Z,102053.96
2019-03-21T14:14:12.783Z,102049.75
2019-03-21T14:16:38.754Z,102050.43
2019-03-21T14:19:04.874Z,102054.30
2019-03-21T14:21:31.127Z,102043.34
2019-03-21T14:23:57.298Z,102037.45
2019-03-21T14:26:23.557Z,102043.13
2019-03-21T14:28:49.540Z,102042.80
2019-03-21T14:31:15.594Z,102041.84
2019-03-21T14:33:44.581Z,102036.91
2019-03-21T14:36:10.896Z,102042.41
2019-03-21T14:38:37.467Z,102038.27
2019-03-21T14:41:03.346Z,102037.80
2019-03-21T14:43:29.442Z,102034.16
2019-03-21T14:45:55.606Z,102026.67
2019-03-21T14:48:21.991Z,102028.66
2019-03-21T14:50:47.862Z,102027.61
2019-03-21T14:53:13.956Z,102032.02
2019-03-21T14:55:47.346Z,102031.01
2019-03-21T14:58:07.744Z,102029.38
2019-03-21T15:00:33.785Z,102036.89
2019-03-21T15:03:00.050Z,102027.91
2019-03-21T15:05:26.154Z,102033.11
2019-03-21T15:07:52.013Z,102023.73
2019-03-21T15:10:18.624Z,102022.04
2019-03-21T15:12:44.623Z,102021.79
2019-03-21T15:15:12.548Z,102023.63
2019-03-21T15:17:39.063Z,102020.59
2019-03-21T15:20:08.266Z,102018.81
2019-03-21T15:22:34.452Z,102022.39
2019-03-21T15:25:00.500Z,102021.05
2019-03-21T15:27:26.510Z,102022.03
2019-03-21T15:29:52.747Z,102020.25
2019-03-21T15:32:19.381Z,102024.11
2019-03-21T15:34:45.330Z,102021.34
2019-03-21T15:37:11.630Z,102030.04
2019-03-21T15:39:37.955Z,102019.50
2019-03-21T15:42:04.338Z,102019.84
2019-03-21T15:44:30.609Z,102016.81
2019-03-21T15:46:56.625Z,102012.01
2019-03-21T15:49:22.571Z,102006.30
2019-03-21T15:51:48.570Z,102009.42
2019-03-21T15:54:14.694Z,102001.65
2019-03-21T15:56:40.564Z,102005.28
2019-03-21T15:59:06.689Z,101999.11
2019-03-21T16:01:32.780Z,102004.00
2019-03-21T16:03:59.103Z,102004.00
2019-03-21T16:06:25.132Z,101998.45
2019-03-21T16:08:51.224Z,102006.19
2019-03-21T16:11:17.040Z,102002.56
2019-03-21T16:13:43.148Z,102001.09
2019-03-21T16:16:09.330Z,102001.71
2019-03-21T16:18:35.395Z,101998.75
2019-03-21T16:21:01.406Z,101999.39
2019-03-21T16:23:27.220Z,101995.73
2019-03-21T16:25:53.347Z,101992.91
2019-03-21T16:28:20.300Z,101994.56
2019-03-21T16:30:46.709Z,101994.67
2019-03-21T16:33:13.002Z,101988.44
2019-03-21T16:35:39.449Z,101987.48
2019-03-21T16:38:05.252Z,101992.95
2019-03-21T16:40:31.426Z,101990.80
2019-03-21T16:42:57.664Z,101988.54
2019-03-21T16:45:23.976Z,101993.22
2019-03-21T16:47:49.994Z,101989.84
2019-03-21T16:50:16.185Z,101990.75
2019-03-21T16:52:41.954Z,101995.11
2019-03-21T16:55:12.454Z,102002.03
2019-03-21T16:57:38.600Z,102002.90
2019-03-21T17:00:07.762Z,102001.79
2019-03-21T17:02:34.016Z,102007.02
2019-03-21T17:05:00.551Z,101999.45
2019-03-21T17:07:26.814Z,102004.22
2019-03-21T17:09:53.095Z,102002.18
2019-03-21T17:12:18.935Z,102002.53
2019-03-21T17:14:44.986Z,102008.37
2019-03-21T17:17:10.857Z,102008.55
2019-03-21T17:19:36.877Z,102008.23
2019-03-21T17:22:03.291Z,102014.24
2019-03-21T17:24:29.917Z,102015.14
2019-03-21T17:26:56.110Z,102012.33
2019-03-21T17:29:21.928Z,102014.78
2019-03-21T17:31:48.041Z,102017.61
2019-03-21T17:34:14.390Z,102018.95
2019-03-21T17:36:40.356Z,102022.73
2019-03-21T17:39:08.102Z,102018.09
2019-03-21T17:41:34.162Z,102021.97
2019-03-21T17:44:00.060Z,102016.25
2019-03-21T17:46:26.140Z,102025.11
2019-03-21T17:48:52.105Z,102026.94
2019-03-21T17:51:18.212Z,102025.86
2019-03-21T17:53:44.286Z,102029.23
2019-03-21T17:56:10.383Z,102034.34
2019-03-21T17:58:36.411Z,102029.91
2019-03-21T18:01:02.637Z,102033.56
2019-03-21T18:03:29.160Z,102028.97
2019-03-21T18:05:55.430Z,102029.63
2019-03-21T18:08:21.590Z,102031.71
2019-03-21T18:10:47.990Z,102024.70
2019-03-21T18:13:14.010Z,102028.58
2019-03-21T18:15:40.090Z,102033.66
2019-03-21T18:18:06.357Z,102041.66
2019-03-21T18:20:32.402Z,102048.52
2019-03-21T18:22:58.972Z,102048.66
2019-03-21T18:25:25.096Z,102044.16
2019-03-21T18:27:51.354Z,102043.40
2019-03-21T18:30:17.602Z,102051.46
2019-03-21T18:32:43.864Z,102045.05
2019-03-21T18:35:11.353Z,102049.66
2019-03-21T18:37:37.478Z,102053.13
2019-03-21T18:40:05.108Z,102062.92
2019-03-21T18:42:31.183Z,102066.02
2019-03-21T18:44:57.493Z,102071.19
2019-03-21T18:47:23.698Z,102073.16
2019-03-21T18:49:49.738Z,102074.00
2019-03-21T18:52:15.675Z,102076.91
2019-03-21T18:54:41.793Z,102079.22
2019-03-21T18:57:08.150Z,102081.69
2019-03-21T18:59:34.187Z,102078.42
2019-03-21T19:02:00.304Z,102084.68
2019-03-21T19:04:26.314Z,102091.63
2019-03-21T19:06:52.458Z,102085.11
2019-03-21T19:09:18.592Z,102089.38
2019-03-21T19:11:44.638Z,102087.05
2019-03-21T19:14:10.796Z,102087.53
2019-03-21T19:16:36.981Z,102090.84
2019-03-21T19:19:03.425Z,102086.12
2019-03-21T19:21:29.769Z,102079.62
2019-03-21T19:23:55.927Z,102083.34
2019-03-21T19:26:21.888Z,102079.98
2019-03-21T19:28:47.910Z,102078.77
2019-03-21T19:31:13.717Z,102076.73
2019-03-21T19:33:40.035Z,102072.12
2019-03-21T19:36:06.169Z,102075.50
2019-03-21T19:38:32.227Z,102084.01
2019-03-21T19:40:58.292Z,102091.16
2019-03-21T19:43:24.336Z,102089.83
2019-03-21T19:45:50.410Z,102086.08
2019-03-21T19:48:16.374Z,102088.27
2019-03-21T19:50:42.456Z,102083.31
2019-03-21T19:53:08.660Z,102082.09
2019-03-21T19:55:34.943Z,102077.52
2019-03-21T19:58:01.372Z,102081.75
2019-03-21T20:00:27.409Z,102079.78
2019-03-21T20:02:53.613Z,102080.05
2019-03-21T20:05:19.793Z,102081.02
2019-03-21T20:07:46.180Z,102083.30
2019-03-21T20:10:14.972Z,102081.84
2019-03-21T20:12:41.129Z,102090.56
2019-03-21T20:15:12.778Z,102089.33
2019-03-21T20:17:38.629Z,102089.43
2019-03-21T20:20:08.217Z,102083.91
2019-03-21T20:22:34.721Z,102088.98
2019-03-21T20:25:00.944Z,102086.20
2019-03-21T20:27:27.387Z,102088.84
2019-03-21T20:29:53.630Z,102086.91
2019-03-21T20:32:20.736Z,102091.87
2019-03-21T20:34:47.373Z,102090.28
2019-03-21T20:37:13.442Z,102098.94
2019-03-21T20:39:39.457Z,102096.55
2019-03-21T20:42:05.952Z,102093.09
2019-03-21T20:44:31.892Z,102096.17
2019-03-21T20:46:57.981Z,102092.98
2019-03-21T20:49:24.363Z,102088.44
2019-03-21T20:51:50.403Z,102088.17
2019-03-21T20:54:16.566Z,102083.60
2019-03-21T20:56:42.882Z,102083.53
2019-03-21T20:59:08.960Z,102087.25
2019-03-21T21:01:35.159Z,102084.76
2019-03-21T21:04:01.125Z,102088.20
2019-03-21T21:06:27.599Z,102089.53
2019-03-21T21:08:53.601Z,102091.54
2019-03-21T21:11:19.651Z,102078.95
2019-03-21T21:13:45.677Z,102084.02
2019-03-21T21:16:11.827Z,102080.39
2019-03-21T21:18:37.880Z,102078.11
2019-03-21T21:21:04.285Z,102077.80
2019-03-21T21:23:30.374Z,102081.63
2019-03-21T21:26:05.008Z,102079.38
2019-03-21T21:28:24.091Z,102080.70
2019-03-21T21:30:50.530Z,102076.14
2019-03-21T21:33:16.550Z,102078.11
2019-03-21T21:35:42.737Z,102078.10
2019-03-21T21:38:08.803Z,102081.45
2019-03-21T21:40:34.999Z,102083.03
2019-03-21T21:43:00.883Z,102082.20
2019-03-21T21:45:26.945Z,102081.81
2019-03-21T21:47:53.099Z,102081.92
2019-03-21T21:50:19.437Z,102083.56
2019-03-21T21:52:45.374Z,102081.52
2019-03-21T21:55:12.607Z,102082.05
2019-03-21T21:57:38.597Z,102077.50
2019-03-21T22:00:07.638Z,102080.49
2019-03-21T22:02:33.767Z,102072.58
2019-03-21T22:05:00.543Z,102071.13
2019-03-21T22:07:27.042Z,102072.75
2019-03-21T22:09:52.935Z,102076.73
2019-03-21T22:12:19.297Z,102076.56
2019-03-21T22:14:45.312Z,102070.58
2019-03-21T22:17:11.340Z,102075.01
2019-03-21T22:19:37.483Z,102073.15
2019-03-21T22:22:03.477Z,102076.92
2019-03-21T22:24:29.401Z,102072.62
2019-03-21T22:26:55.741Z,102073.95
2019-03-21T22:29:21.960Z,102076.55
2019-03-21T22:31:47.763Z,102079.97
2019-03-21T22:34:13.817Z,102077.61
2019-03-21T22:36:48.889Z,102076.44
2019-03-21T22:39:07.989Z,102073.77
2019-03-21T22:41:34.141Z,102061.34
2019-03-21T22:44:00.234Z,102065.64
2019-03-21T22:46:26.365Z,102068.75
2019-03-21T22:48:52.423Z,102068.10
2019-03-21T22:51:18.618Z,102067.07
2019-03-21T22:53:44.513Z,102074.30
2019-03-21T22:56:10.599Z,102065.73
2019-03-21T22:58:36.695Z,102060.52
2019-03-21T23:01:03.742Z,102056.33
2019-03-21T23:03:30.066Z,102059.86
2019-03-21T23:05:56.171Z,102057.45
2019-03-21T23:08:22.227Z,102055.38
2019-03-21T23:10:48.658Z,102050.20
2019-03-21T23:13:14.571Z,102044.58
2019-03-21T23:15:40.734Z,102042.05
2019-03-21T23:18:06.721Z,102043.27
2019-03-21T23:20:33.079Z,102035.84
2019-03-21T23:22:59.366Z,102040.98
2019-03-21T23:25:25.284Z,102034.80
2019-03-21T23:27:51.415Z,102040.95
2019-03-21T23:30:18.392Z,102039.58
2019-03-21T23:32:44.650Z,102037.97
2019-03-21T23:35:10.870Z,102033.05
2019-03-21T23:37:37.152Z,102029.72
2019-03-21T23:40:08.788Z,102028.55
2019-03-21T23:42:34.981Z,102028.27
2019-03-21T23:45:00.763Z,102032.05
2019-03-21T23:47:26.821Z,102034.32
2019-03-21T23:49:52.635Z,102028.20
2019-03-21T23:52:18.708Z,102031.70
2019-03-21T23:54:44.868Z,102028.68
2019-03-21T23:57:10.955Z,102022.86
2019-03-21T23:59:37.023Z,102025.52
